Time;durP1;ratioP1;P1;durP2;ratioP2;P2;SDS_P1;SDS_P2;PMS_P1;PMS_P2;Temp;Humidity;BMP_temperature;BMP_pressure;BME280_temperature;BME280_humidity;BME280_pressure;Samples;Min_cycle;Max_cycle;Signal;HPM_P1;HPM_P2
2023/04/19 00:02:13;;;;;;;29.35;21.02;;;10.00;86.80;;;;;;5792889;24;84937;-86
2023/04/19 00:04:43;;;;;;;28.00;20.52;;;10.10;86.90;;;;;;5803937;24;86658;-81
2023/04/19 00:07:56;;;;;;;31.90;20.80;;;10.10;86.80;;;;;;5846289;24;87316;-83
2023/04/19 00:11:03;;;;;;;30.27;19.95;;;10.10;86.70;;;;;;5725932;24;85297;-85
2023/04/19 00:13:52;;;;;;;;;;;10.10;86.30;;;;;;5637914;25;85057;-84
2023/04/19 00:16:48;;;;;;;31.63;19.88;;;10.10;86.00;;;;;;5611771;25;85782;-85
2023/04/19 00:19:34;;;;;;;26.85;19.52;;;10.10;86.30;;;;;;5627332;25;85516;-83
2023/04/19 00:37:10;;;;;;;28.45;20.33;;;10.30;86.30;;;;;;5516329;25;85048;-84
2023/04/19 00:39:41;;;;;;;27.23;17.98;;;10.30;86.40;;;;;;5610100;25;85167;-84
2023/04/19 00:42:35;;;;;;;30.98;21.13;;;10.30;85.70;;;;;;5595186;25;86940;-85
2023/04/19 00:46:07;;;;;;;25.67;19.80;;;10.30;85.70;;;;;;5715288;24;87340;-81
2023/04/19 01:41:14;;;;;;;26.75;18.13;;;10.60;85.40;;;;;;6048046;23;89371;-85
2023/04/19 01:44:52;;;;;;;25.38;18.00;;;10.60;84.90;;;;;;5968175;23;89631;-86
2023/04/19 01:47:40;;;;;;;25.95;18.05;;;10.60;84.70;;;;;;5964975;23;85084;-84
2023/04/19 01:50:17;;;;;;;24.98;17.92;;;10.60;85.00;;;;;;6045429;23;85206;-85
2023/04/19 02:00:22;;;;;;;23.15;17.10;;;10.60;85.00;;;;;;5947974;23;85021;-84
2023/04/19 02:03:11;;;;;;;24.25;17.42;;;10.60;84.40;;;;;;5904091;23;84995;-85
2023/04/19 02:06:15;;;;;;;24.83;17.75;;;10.60;85.00;;;;;;5897692;23;85256;-84
2023/04/19 02:09:05;;;;;;;;;;;10.60;85.00;;;;;;5849199;23;87954;-79
2023/04/19 02:18:48;;;;;;;23.02;16.58;;;10.60;85.10;;;;;;5809680;23;85068;-85
2023/04/19 02:21:58;;;;;;;26.63;17.65;;;10.60;85.00;;;;;;5765132;24;85461;-83
2023/04/19 02:24:58;;;;;;;27.20;18.10;;;10.60;85.50;;;;;;5818960;24;84924;-85
2023/04/19 02:28:10;;;;;;;26.42;18.10;;;10.60;85.30;;;;;;5762780;24;85439;-82
2023/04/19 03:00:32;;;;;;;25.52;18.13;;;10.70;84.50;;;;;;5765974;24;89381;-83
2023/04/19 03:03:09;;;;;;;25.20;16.33;;;10.70;84.90;;;;;;5809338;24;85588;-84
2023/04/19 03:06:00;;;;;;;25.67;17.98;;;10.70;84.80;;;;;;5765074;24;84940;-84
2023/04/19 03:08:57;;;;;;;28.63;18.98;;;10.70;85.00;;;;;;5879605;23;84987;-83
2023/04/19 03:36:02;;;;;;;27.75;17.90;;;10.20;86.00;;;;;;5927486;23;86029;-84
2023/04/19 03:38:37;;;;;;;24.45;17.55;;;10.00;86.60;;;;;;5886086;23;87403;-85
2023/04/19 03:41:47;;;;;;;28.08;18.77;;;9.90;86.80;;;;;;5822113;23;85466;-81
2023/04/19 03:44:35;;;;;;;28.92;18.65;;;9.80;87.20;;;;;;5746518;24;85946;-83
2023/04/19 03:47:44;;;;;;;26.00;18.73;;;9.80;88.10;;;;;;5768777;24;85321;-85
2023/04/19 03:54:13;;;;;;;27.73;18.50;;;9.60;88.40;;;;;;5685957;24;87164;-82
2023/04/19 03:56:45;;;;;;;28.52;18.85;;;9.60;88.50;;;;;;5625042;25;85721;-85
2023/04/19 03:59:36;;;;;;;27.73;18.30;;;9.60;88.60;;;;;;5597860;25;85039;-84
2023/04/19 04:02:30;;;;;;;27.63;18.55;;;9.50;88.60;;;;;;5612620;25;86817;-83
2023/04/19 04:11:43;;;;;;;34.30;19.70;;;9.30;90.00;;;;;;5571050;25;85455;-84
2023/04/19 04:14:16;;;;;;;30.20;19.30;;;9.30;90.10;;;;;;5653588;24;88346;-83
2023/04/19 04:16:50;;;;;;;28.02;18.98;;;9.20;90.10;;;;;;5762282;24;89773;-83
2023/04/19 04:19:29;;;;;;;30.55;20.38;;;9.20;90.30;;;;;;5771687;24;84979;-84
2023/04/19 04:22:11;;;;;;;31.95;20.48;;;9.10;90.50;;;;;;5798661;24;85171;-83
2023/04/19 04:24:58;;;;;;;33.40;21.08;;;9.10;90.50;;;;;;5816004;24;85701;-85
2023/04/19 04:27:25;;;;;;;34.92;21.08;;;9.10;90.80;;;;;;5865265;23;86978;-84
2023/04/19 04:29:55;;;;;;;31.52;20.67;;;9.10;90.90;;;;;;5876052;23;85310;-85
2023/04/19 04:32:51;;;;;;;35.92;21.20;;;9.10;91.00;;;;;;5891343;23;85999;-83
2023/04/19 04:36:25;;;;;;;32.13;21.10;;;9.20;91.10;;;;;;5879343;23;85810;-84
2023/04/19 04:39:15;;;;;;;32.25;21.10;;;9.20;91.10;;;;;;5841862;24;85331;-84
2023/04/19 04:42:07;;;;;;;29.05;20.52;;;9.30;91.30;;;;;;5808823;24;85416;-84
2023/04/19 04:45:17;;;;;;;32.35;20.55;;;9.30;91.20;;;;;;5770799;24;84908;-84
2023/04/19 06:07:43;;;;;;;28.95;18.50;;;10.70;90.10;;;;;;6164569;22;87270;-83
2023/04/19 07:13:17;;;;;;;26.45;16.17;;;12.80;81.50;;;;;;6189502;22;84842;-79
2023/04/19 07:16:08;;;;;;;24.38;15.95;;;12.90;81.20;;;;;;6191539;22;84887;-84
2023/04/19 07:19:30;;;;;;;22.70;15.02;;;13.00;81.00;;;;;;6008123;23;86012;-83
2023/04/19 07:24:57;;;;;;;15.85;11.95;;;13.20;77.80;;;;;;6232770;22;86014;-81
2023/04/19 08:01:32;;;;;;;20.15;11.90;;;14.40;71.50;;;;;;6255874;22;86326;-82
2023/04/19 08:04:31;;;;;;;16.48;11.52;;;14.50;70.30;;;;;;6027490;23;87325;-82
2023/04/19 08:12:28;;;;;;;18.50;10.90;;;15.10;68.60;;;;;;6169174;22;89643;-81
2023/04/19 11:24:47;;;;;;;13.63;4.78;;;22.70;40.70;;;;;;6203773;22;89479;-79
2023/04/19 11:27:12;;;;;;;18.90;4.22;;;22.70;39.50;;;;;;6219360;22;90960;-79
2023/04/19 11:29:38;;;;;;;7.85;3.70;;;22.80;39.60;;;;;;6220398;22;87255;-79
2023/04/19 11:32:04;;;;;;;11.20;4.20;;;22.90;40.80;;;;;;6189483;22;91094;-79
2023/04/19 11:34:50;;;;;;;8.05;3.97;;;23.10;41.20;;;;;;6222655;22;88697;-79
2023/04/19 11:37:42;;;;;;;13.00;4.00;;;23.10;39.00;;;;;;6183570;22;87506;-78
2023/04/19 12:03:23;;;;;;;7.07;2.78;;;23.30;36.70;;;;;;6250240;22;87230;-79
2023/04/19 12:05:53;;;;;;;6.78;2.72;;;23.50;35.40;;;;;;6249293;22;88423;-78
2023/04/19 12:08:30;;;;;;;5.97;2.47;;;23.20;32.80;;;;;;6222748;22;91056;-78
2023/04/19 12:10:57;;;;;;;7.20;2.80;;;23.10;34.50;;;;;;6238575;22;87638;-81
2023/04/19 12:13:24;;;;;;;5.35;2.45;;;23.20;35.10;;;;;;6265235;22;86964;-81
2023/04/19 12:15:50;;;;;;;6.55;2.17;;;23.40;34.10;;;;;;6251821;22;88145;-82
2023/04/19 12:18:16;;;;;;;3.55;2.15;;;23.60;34.90;;;;;;6249575;22;89068;-84
2023/04/19 12:20:47;;;;;;;4.32;2.63;;;23.90;32.70;;;;;;6222289;22;87472;-82
2023/04/19 12:23:14;;;;;;;5.60;2.70;;;23.90;31.70;;;;;;6248801;22;87425;-83
2023/04/19 12:25:41;;;;;;;11.10;2.40;;;23.80;33.60;;;;;;6248180;22;89096;-81
2023/04/19 12:28:08;;;;;;;6.10;2.13;;;23.90;34.40;;;;;;6221465;22;90723;-83
2023/04/19 12:30:37;;;;;;;3.72;2.38;;;23.90;33.00;;;;;;6221821;22;87285;-83
2023/04/19 12:33:03;;;;;;;6.15;2.28;;;23.90;31.60;;;;;;6221099;22;89252;-83
2023/04/19 12:35:29;;;;;;;7.82;2.65;;;23.90;33.80;;;;;;6248310;22;87482;-83
2023/04/19 12:38:02;;;;;;;7.80;2.45;;;24.00;32.40;;;;;;6247358;22;87619;-83
2023/04/19 12:40:29;;;;;;;2.83;2.00;;;24.00;31.70;;;;;;6248984;22;87112;-86
2023/04/19 12:42:55;;;;;;;4.85;2.00;;;24.00;32.70;;;;;;6223991;22;88230;-84
2023/04/19 12:45:20;;;;;;;2.47;2.10;;;24.00;33.10;;;;;;6248911;22;87963;-81
2023/04/19 12:47:47;;;;;;;2.83;1.98;;;24.30;37.60;;;;;;6249666;22;88337;-84
2023/04/19 12:50:14;;;;;;;6.97;2.20;;;24.20;30.90;;;;;;6247307;22;88362;-78
2023/04/19 12:52:41;;;;;;;5.88;1.88;;;23.80;31.80;;;;;;6248681;22;88111;-81
2023/04/19 12:55:07;;;;;;;3.25;1.65;;;23.90;34.30;;;;;;6222252;22;91015;-80
2023/04/19 12:57:33;;;;;;;4.53;1.80;;;23.90;34.50;;;;;;6221872;22;90889;-83
2023/04/19 13:00:06;;;;;;;6.28;2.05;;;23.70;30.80;;;;;;6249536;22;87431;-84
2023/04/19 13:02:33;;;;;;;5.53;1.80;;;23.70;32.70;;;;;;6246240;22;87384;-84
2023/04/19 13:04:59;;;;;;;3.50;1.70;;;23.90;33.70;;;;;;6218913;22;88526;-84
2023/04/19 13:07:25;;;;;;;4.53;1.88;;;24.10;32.50;;;;;;6218801;22;86765;-83
2023/04/19 13:09:50;;;;;;;6.18;2.05;;;24.20;33.80;;;;;;6191888;22;87326;-84
2023/04/19 13:12:16;;;;;;;3.15;1.73;;;24.30;33.30;;;;;;6216537;22;89107;-81
2023/04/19 13:14:45;;;;;;;2.47;1.38;;;24.40;32.60;;;;;;6190183;22;91409;-82
2023/04/19 13:17:10;;;;;;;6.68;1.70;;;24.60;34.20;;;;;;6217462;22;89213;-81
2023/04/19 13:19:36;;;;;;;6.13;1.60;;;25.00;32.60;;;;;;6215246;22;86983;-83
2023/04/19 13:42:13;;;;;;;3.95;1.38;;;25.70;30.00;;;;;;6216580;22;87217;-85
2023/04/19 13:44:38;;;;;;;5.80;1.40;;;25.70;30.30;;;;;;6191085;22;88265;-86
2023/04/19 13:47:04;;;;;;;5.47;1.83;;;25.80;30.90;;;;;;6218137;22;87328;-85
2023/04/19 13:49:30;;;;;;;3.15;1.55;;;26.00;29.80;;;;;;6218187;22;88300;-86
2023/04/19 13:51:55;;;;;;;1.88;1.60;;;26.20;30.90;;;;;;6192304;22;91398;-83
2023/04/19 13:54:21;;;;;;;3.45;1.58;;;26.30;28.70;;;;;;6191227;22;95640;-91
2023/04/19 14:24:09;;;;;;;6.03;1.55;;;27.00;28.20;;;;;;6244938;22;88151;-86
2023/04/19 14:26:35;;;;;;;5.50;1.77;;;26.70;28.40;;;;;;6217741;22;87353;-83
2023/04/19 14:29:01;;;;;;;2.47;1.60;;;26.60;28.80;;;;;;6217882;22;88752;-82
2023/04/19 14:31:26;;;;;;;2.55;1.80;;;26.80;28.60;;;;;;6190221;22;90008;-83
2023/04/19 14:33:52;;;;;;;1.88;1.58;;;27.10;27.90;;;;;;6218959;22;86889;-83
2023/04/19 14:36:17;;;;;;;4.00;1.80;;;27.10;27.80;;;;;;6191114;22;88319;-82
2023/04/19 14:38:43;;;;;;;3.63;1.67;;;26.80;27.60;;;;;;6190272;22;91853;-82
2023/04/19 14:41:08;;;;;;;2.65;1.70;;;26.50;28.30;;;;;;6189930;22;90810;-82
2023/04/19 14:43:34;;;;;;;4.50;2.00;;;26.60;27.70;;;;;;6216595;22;88229;-83
2023/04/19 14:49:21;;;;;;;5.50;2.00;;;26.40;28.10;;;;;;6215960;22;90664;-83
2023/04/19 14:51:47;;;;;;;2.75;1.80;;;26.60;27.50;;;;;;6218115;22;88186;-84
2023/04/19 14:54:12;;;;;;;4.47;1.80;;;26.70;28.20;;;;;;6189759;22;87121;-83
2023/04/19 14:56:38;;;;;;;3.63;1.88;;;26.70;26.70;;;;;;6217199;22;86888;-88
2023/04/19 15:19:14;;;;;;;8.45;2.15;;;27.60;26.70;;;;;;6215438;22;87278;-83
2023/04/19 15:21:39;;;;;;;3.33;2.60;;;27.60;27.60;;;;;;6217678;22;87875;-81
2023/04/19 15:24:06;;;;;;;4.93;2.30;;;27.50;27.10;;;;;;6216532;22;88642;-82
2023/04/19 15:26:33;;;;;;;3.75;2.10;;;27.40;25.90;;;;;;6216835;22;88125;-82
2023/04/19 15:28:59;;;;;;;6.00;1.88;;;27.40;27.60;;;;;;6216676;22;87470;-80
2023/04/19 15:31:25;;;;;;;4.85;2.25;;;27.40;27.40;;;;;;6216919;22;87254;-80
2023/04/19 15:33:51;;;;;;;6.88;2.40;;;27.20;26.30;;;;;;6190152;22;90141;-80
2023/04/19 15:36:16;;;;;;;4.03;2.22;;;27.10;27.20;;;;;;6189243;22;89871;-81
2023/04/19 15:38:42;;;;;;;2.47;1.83;;;27.20;26.10;;;;;;6214571;22;88050;-82
2023/04/19 15:41:08;;;;;;;6.40;2.35;;;27.30;26.70;;;;;;6189560;22;89117;-82
2023/04/19 15:43:33;;;;;;;3.78;2.30;;;27.10;27.20;;;;;;6216708;22;88506;-81
2023/04/19 15:45:59;;;;;;;5.88;2.38;;;27.10;26.80;;;;;;6215461;22;90927;-81
2023/04/19 15:48:25;;;;;;;6.45;2.35;;;27.30;27.40;;;;;;6216771;22;87470;-80
2023/04/19 15:50:51;;;;;;;4.75;2.15;;;27.60;27.10;;;;;;6216274;22;87147;-80
2023/04/19 15:53:17;;;;;;;7.90;2.20;;;28.10;27.70;;;;;;6216772;22;88153;-83
2023/04/19 15:55:43;;;;;;;8.82;2.00;;;28.30;27.10;;;;;;6217354;22;87261;-79
2023/04/19 15:58:08;;;;;;;5.57;2.22;;;28.00;27.20;;;;;;6215429;22;87474;-81
2023/04/19 16:00:34;;;;;;;5.75;2.60;;;27.90;25.30;;;;;;6215855;22;88843;-80
2023/04/19 16:03:00;;;;;;;4.25;2.75;;;27.60;25.60;;;;;;6188643;22;91071;-86
2023/04/19 16:05:26;;;;;;;5.03;2.88;;;27.30;25.70;;;;;;6214797;22;91447;-87
2023/04/19 16:08:06;;;;;;;4.63;2.70;;;27.30;25.50;;;;;;6187280;22;87385;-86
2023/04/19 16:10:32;;;;;;;4.75;3.10;;;27.50;25.50;;;;;;6186616;22;90340;-86
2023/04/19 16:12:57;;;;;;;3.90;2.50;;;27.60;26.20;;;;;;6188412;22;91303;-87
2023/04/19 16:15:23;;;;;;;3.13;2.45;;;27.50;25.00;;;;;;6186571;22;90551;-86
2023/04/19 16:17:51;;;;;;;6.60;2.58;;;27.00;25.30;;;;;;6187090;22;87553;-86
2023/04/19 16:20:16;;;;;;;4.88;2.58;;;27.30;25.50;;;;;;6187265;22;88733;-87
2023/04/19 16:22:42;;;;;;;4.72;2.55;;;27.40;25.70;;;;;;6214347;22;87558;-88
2023/04/19 16:25:10;;;;;;;6.65;2.47;;;27.50;24.60;;;;;;6213900;22;87793;-85
2023/04/19 16:27:39;;;;;;;4.30;2.80;;;27.10;25.20;;;;;;6189984;22;89023;-86
2023/04/19 16:30:05;;;;;;;4.63;2.40;;;27.30;25.90;;;;;;6189875;22;89806;-84
2023/04/19 16:32:31;;;;;;;4.50;2.58;;;27.30;26.10;;;;;;6189219;22;93607;-86
2023/04/19 16:34:56;;;;;;;5.68;3.25;;;27.50;26.70;;;;;;6189863;22;91564;-84
2023/04/19 16:37:22;;;;;;;6.95;2.95;;;27.80;25.50;;;;;;6217313;22;87653;-85
2023/04/19 16:40:08;;;;;;;11.10;2.85;;;28.00;26.40;;;;;;6190551;22;89727;-85
2023/04/19 16:42:35;;;;;;;4.70;2.55;;;28.50;26.30;;;;;;6190425;22;95349;-84
2023/04/19 16:45:01;;;;;;;5.97;3.28;;;28.60;25.90;;;;;;6189068;22;90165;-86
2023/04/19 16:47:28;;;;;;;5.03;2.38;;;28.40;26.30;;;;;;6190135;22;87409;-84
2023/04/19 16:49:55;;;;;;;4.13;2.75;;;28.60;26.40;;;;;;6190472;22;88163;-88
2023/04/19 17:15:53;;;;;;;8.35;3.20;;;26.80;27.10;;;;;;6215305;22;91075;-83
2023/04/19 17:18:19;;;;;;;3.60;3.28;;;26.40;27.60;;;;;;6190287;22;89093;-87
2023/04/19 17:20:45;;;;;;;4.50;3.22;;;26.10;26.80;;;;;;6189315;22;90621;-89
2023/04/19 17:23:14;;;;;;;4.90;3.60;;;25.80;27.80;;;;;;6151525;22;88602;-87
2023/04/19 17:25:40;;;;;;;4.57;3.15;;;25.50;27.30;;;;;;6172034;22;88854;-88
2023/04/19 17:28:06;;;;;;;5.50;3.25;;;25.20;27.80;;;;;;6184886;22;90938;-86
2023/04/19 17:34:20;;;;;;;3.40;2.95;;;24.60;28.70;;;;;;6223403;22;89151;-85
2023/04/19 18:13:37;;;;;;;5.22;2.47;;;19.10;36.40;;;;;;6245675;22;86775;-86
2023/04/19 18:16:15;;;;;;;4.40;3.03;;;18.60;37.50;;;;;;6101583;22;87782;-86
2023/04/19 18:19:00;;;;;;;7.20;2.67;;;18.20;37.20;;;;;;6159188;22;87029;-87
2023/04/19 18:22:03;;;;;;;5.85;3.05;;;17.80;37.60;;;;;;6084049;23;91474;-87
2023/04/19 18:24:50;;;;;;;8.23;3.08;;;17.40;38.40;;;;;;6026947;23;90926;-86
2023/04/19 18:28:05;;;;;;;5.63;2.50;;;17.10;39.30;;;;;;6036935;23;86452;-86
2023/04/19 22:53:29;;;;;;;7.57;3.97;;;8.40;55.00;;;;;;6166584;22;87950;31
2023/04/19 23:12:22;;;;;;;7.30;3.20;;;8.20;55.90;;;;;;6170705;22;88579;31
2023/04/19 23:19:00;;;;;;;7.63;4.05;;;8.00;56.40;;;;;;6186745;22;88268;31
2023/04/19 23:27:35;;;;;;;7.88;3.78;;;7.90;56.80;;;;;;6171409;22;87650;31
2023/04/19 23:31:15;;;;;;;11.05;4.03;;;7.90;57.20;;;;;;6168345;22;88604;31
2023/04/19 23:37:07;;;;;;;8.43;3.50;;;7.70;57.30;;;;;;6194764;22;88506;31
2023/04/19 23:45:45;;;;;;;8.48;3.33;;;7.60;58.50;;;;;;6223910;22;88634;31
2023/04/19 23:49:19;;;;;;;7.80;3.80;;;7.60;58.70;;;;;;6042638;23;86613;-92
2023/04/19 23:52:30;;;;;;;9.60;3.33;;;7.60;58.70;;;;;;5901303;23;87027;-89
2023/04/19 23:58:37;;;;;;;11.68;3.78;;;7.40;58.30;;;;;;6222455;22;86090;-89
